createdAt,value
2018-10-17T00:02:14.117Z,100634.29
2018-10-17T00:04:43.324Z,100633.67
2018-10-17T00:07:12.616Z,100634.13
2018-10-17T00:09:41.761Z,100633.11
2018-10-17T00:12:10.913Z,100635.95
2018-10-17T00:14:40.121Z,100631.79
2018-10-17T00:17:09.832Z,100635.38
2018-10-17T00:19:39.304Z,100632.91
2018-10-17T00:22:08.952Z,100627.68
2018-10-17T00:24:38.137Z,100635.65
2018-10-17T00:27:07.383Z,100629.06
2018-10-17T00:29:36.684Z,100628.62
2018-10-17T00:32:05.864Z,100633.35
2018-10-17T00:34:35.045Z,100627.53
2018-10-17T00:37:04.331Z,100623.36
2018-10-17T00:39:33.524Z,100626.95
2018-10-17T00:42:02.652Z,100621.83
2018-10-17T00:44:31.904Z,100622.61
2018-10-17T00:47:01.087Z,100622.09
2018-10-17T00:49:30.188Z,100624.48
2018-10-17T00:51:59.386Z,100620.30
2018-10-17T00:54:28.505Z,100612.20
2018-10-17T00:56:57.695Z,100611.79
2018-10-17T00:59:27.357Z,100616.44
2018-10-17T01:01:56.532Z,100610.98
2018-10-17T01:04:25.681Z,100616.37
2018-10-17T01:06:54.989Z,100617.80
2018-10-17T01:09:24.103Z,100619.53
2018-10-17T01:11:53.276Z,100611.86
2018-10-17T01:14:22.398Z,100611.16
2018-10-17T01:16:51.539Z,100614.98
2018-10-17T01:19:20.650Z,100612.25
2018-10-17T01:21:49.830Z,100614.45
2018-10-17T01:24:18.945Z,100616.02
2018-10-17T01:26:48.144Z,100612.03
2018-10-17T01:29:17.318Z,100609.92
2018-10-17T01:31:46.489Z,100611.98
2018-10-17T01:34:15.609Z,100605.26
2018-10-17T01:36:44.765Z,100607.33
2018-10-17T01:39:13.928Z,100607.98
2018-10-17T01:41:43.089Z,100617.32
2018-10-17T01:44:12.230Z,100620.19
2018-10-17T01:46:41.400Z,100617.20
2018-10-17T01:49:10.548Z,100607.33
2018-10-17T01:51:39.684Z,100610.97
2018-10-17T01:54:08.841Z,100603.81
2018-10-17T01:56:38.025Z,100595.92
2018-10-17T01:59:07.716Z,100607.67
2018-10-17T02:01:36.877Z,100601.75
2018-10-17T02:04:06.216Z,100593.44
2018-10-17T02:06:35.385Z,100595.23
2018-10-17T02:09:05.669Z,100591.79
2018-10-17T02:11:34.857Z,100600.34
2018-10-17T02:14:04.103Z,100596.62
2018-10-17T02:16:33.158Z,100596.59
2018-10-17T02:19:02.558Z,100602.55
2018-10-17T02:21:31.665Z,100602.41
2018-10-17T02:24:00.793Z,100594.06
2018-10-17T02:26:29.877Z,100592.78
2018-10-17T02:28:59.075Z,100595.95
2018-10-17T02:31:28.162Z,100593.64
2018-10-17T02:33:57.309Z,100593.37
2018-10-17T02:36:26.379Z,100594.34
2018-10-17T02:38:55.525Z,100596.66
2018-10-17T02:41:24.609Z,100588.94
2018-10-17T02:43:53.847Z,100597.64
2018-10-17T02:46:22.934Z,100601.16
2018-10-17T02:48:52.131Z,100587.33
2018-10-17T02:51:21.204Z,100589.67
2018-10-17T02:53:50.340Z,100593.05
2018-10-17T02:56:19.434Z,100594.32
2018-10-17T02:58:48.565Z,100596.84
2018-10-17T03:01:17.771Z,100598.08
2018-10-17T03:03:47.021Z,100602.13
2018-10-17T03:06:16.146Z,100599.47
2018-10-17T03:08:45.275Z,100601.75
2018-10-17T03:11:14.386Z,100611.30
2018-10-17T03:13:43.498Z,100606.45
2018-10-17T03:16:12.692Z,100610.08
2018-10-17T03:18:41.875Z,100609.32
2018-10-17T03:21:11.005Z,100610.63
2018-10-17T03:23:40.170Z,100611.11
2018-10-17T03:26:09.286Z,100622.41
2018-10-17T03:28:38.432Z,100611.94
2018-10-17T03:31:07.594Z,100619.39
2018-10-17T03:33:36.751Z,100614.53
2018-10-17T03:36:05.882Z,100621.21
2018-10-17T03:38:35.024Z,100623.65
2018-10-17T03:41:04.195Z,100621.98
2018-10-17T03:43:33.309Z,100613.89
2018-10-17T03:46:02.362Z,100623.03
2018-10-17T03:48:31.501Z,100621.65
2018-10-17T03:51:00.562Z,100622.27
2018-10-17T03:53:29.680Z,100626.27
2018-10-17T03:55:58.780Z,100624.91
2018-10-17T03:58:28.091Z,100627.78
2018-10-17T04:00:57.195Z,100626.36
2018-10-17T04:03:26.299Z,100626.36
2018-10-17T04:05:55.399Z,100624.34
2018-10-17T04:08:24.577Z,100629.05
2018-10-17T04:11:11.940Z,100626.87
2018-10-17T04:13:41.070Z,100631.75
2018-10-17T04:16:10.179Z,100634.80
2018-10-17T04:18:39.335Z,100626.15
2018-10-17T04:21:08.580Z,100632.58
2018-10-17T04:23:37.713Z,100627.97
2018-10-17T04:26:06.788Z,100631.21
2018-10-17T04:28:37.696Z,100638.11
2018-10-17T04:31:06.950Z,100635.91
2018-10-17T04:33:36.078Z,100637.84
2018-10-17T04:36:05.248Z,100643.08
2018-10-17T04:38:34.495Z,100640.41
2018-10-17T04:41:03.636Z,100631.31
2018-10-17T04:43:32.754Z,100631.91
2018-10-17T04:46:01.847Z,100624.53
2018-10-17T04:48:30.984Z,100627.63
2018-10-17T04:51:00.173Z,100623.92
2018-10-17T04:53:29.397Z,100626.39
2018-10-17T04:55:58.479Z,100631.31
2018-10-17T04:58:27.608Z,100629.06
2018-10-17T05:00:56.673Z,100632.12
2018-10-17T05:03:25.858Z,100629.80
2018-10-17T05:05:54.941Z,100627.84
2018-10-17T05:08:24.070Z,100633.10
2018-10-17T05:10:53.259Z,100623.05
2018-10-17T05:13:22.390Z,100628.89
2018-10-17T05:15:51.547Z,100623.36
2018-10-17T05:18:20.676Z,100623.05
2018-10-17T05:20:49.829Z,100624.11
2018-10-17T05:23:18.938Z,100626.99
2018-10-17T05:25:48.095Z,100627.34
2018-10-17T05:28:17.193Z,100633.17
2018-10-17T05:30:46.356Z,100629.73
2018-10-17T05:33:15.432Z,100635.50
2018-10-17T05:35:44.561Z,100632.75
2018-10-17T05:38:14.540Z,100629.87
2018-10-17T05:40:43.785Z,100630.36
2018-10-17T05:43:13.014Z,100629.45
2018-10-17T05:45:42.223Z,100635.42
2018-10-17T05:48:11.384Z,100634.80
2018-10-17T05:50:40.600Z,100636.76
2018-10-17T05:53:09.722Z,100629.80
2018-10-17T05:55:38.954Z,100623.20
2018-10-17T05:58:08.153Z,100634.52
2018-10-17T06:00:37.412Z,100627.94
2018-10-17T06:03:06.983Z,100632.92
2018-10-17T06:05:36.172Z,100633.84
2018-10-17T06:08:05.600Z,100632.08
2018-10-17T06:10:34.808Z,100628.45
2018-10-17T06:13:04.558Z,100627.88
2018-10-17T06:15:33.712Z,100627.70
2018-10-17T06:18:03.003Z,100634.94
2018-10-17T06:20:32.885Z,100643.27
2018-10-17T06:23:02.083Z,100643.91
2018-10-17T06:25:31.557Z,100646.03
2018-10-17T06:28:00.767Z,100641.33
2018-10-17T06:30:29.978Z,100641.39
2018-10-17T06:32:59.326Z,100649.39
2018-10-17T06:35:28.547Z,100643.56
2018-10-17T06:37:57.647Z,100646.77
2018-10-17T06:40:26.847Z,100654.28
2018-10-17T06:42:56.121Z,100650.05
2018-10-17T06:45:25.316Z,100653.47
2018-10-17T06:47:54.457Z,100649.98
2018-10-17T06:50:23.626Z,100651.09
2018-10-17T06:52:52.815Z,100657.41
2018-10-17T06:55:23.005Z,100655.12
2018-10-17T06:57:52.185Z,100649.33
2018-10-17T07:00:21.475Z,100650.63
2018-10-17T07:02:50.664Z,100650.23
2018-10-17T07:05:19.989Z,100653.49
2018-10-17T07:07:49.128Z,100650.11
2018-10-17T07:10:18.312Z,100656.05
2018-10-17T07:12:48.211Z,100649.70
2018-10-17T07:15:17.467Z,100656.33
2018-10-17T07:17:46.553Z,100653.66
2018-10-17T07:20:15.781Z,100654.98
2018-10-17T07:22:44.897Z,100658.27
2018-10-17T07:25:14.131Z,100659.33
2018-10-17T07:27:43.271Z,100660.95
2018-10-17T07:30:13.427Z,100662.45
2018-10-17T07:32:42.653Z,100667.71
2018-10-17T07:35:11.910Z,100665.74
2018-10-17T07:37:41.164Z,100667.42
2018-10-17T07:40:10.309Z,100670.06
2018-10-17T07:42:39.539Z,100668.85
2018-10-17T07:45:09.056Z,100667.55
2018-10-17T07:47:38.316Z,100675.10
2018-10-17T07:50:08.030Z,100669.44
2018-10-17T07:52:37.196Z,100678.35
2018-10-17T07:55:07.214Z,100670.92
2018-10-17T07:57:36.432Z,100669.69
2018-10-17T08:44:56.521Z,100674.00
2018-10-17T08:47:25.498Z,100667.17
2018-10-17T08:49:54.716Z,100675.87
2018-10-17T08:52:23.660Z,100673.29
2018-10-17T08:54:52.585Z,100669.28
2018-10-17T08:57:21.537Z,100675.66
2018-10-17T08:59:50.453Z,100674.83
2018-10-17T09:02:19.382Z,100686.55
2018-10-17T09:04:48.319Z,100680.91
2018-10-17T09:07:17.324Z,100682.50
2018-10-17T09:09:46.204Z,100682.12
2018-10-17T09:12:15.219Z,100686.80
2018-10-17T09:14:44.089Z,100690.21
2018-10-17T09:17:13.034Z,100682.32
2018-10-17T09:19:42.095Z,100686.12
2018-10-17T09:22:11.301Z,100688.43
2018-10-17T09:24:39.861Z,100683.78
2018-10-17T09:27:08.822Z,100685.63
2018-10-17T09:29:37.707Z,100685.00
2018-10-17T09:32:06.850Z,100683.69
2018-10-17T09:34:35.756Z,100687.58
2018-10-17T09:37:04.694Z,100685.17
2018-10-17T09:39:33.600Z,100688.63
2018-10-17T09:42:02.661Z,100685.58
2018-10-17T09:44:31.702Z,100685.53
2018-10-17T09:47:00.742Z,100685.20
2018-10-17T09:49:29.668Z,100690.27
2018-10-17T09:51:58.669Z,100689.94
2018-10-17T09:54:27.621Z,100681.64
2018-10-17T09:56:56.649Z,100683.77
2018-10-17T09:59:25.596Z,100684.34
2018-10-17T10:01:54.802Z,100686.91
2018-10-17T10:04:24.150Z,100684.80
2018-10-17T10:06:53.200Z,100681.06
2018-10-17T10:09:22.396Z,100682.58
2018-10-17T10:11:51.655Z,100680.11
2018-10-17T10:14:21.225Z,100671.11
2018-10-17T10:16:50.185Z,100671.67
2018-10-17T10:19:19.148Z,100667.53
2018-10-17T10:21:48.111Z,100669.70
2018-10-17T10:24:17.150Z,100671.48
2018-10-17T10:26:46.094Z,100668.05
2018-10-17T10:29:15.006Z,100663.85
2018-10-17T10:31:43.975Z,100668.95
2018-10-17T10:34:13.001Z,100664.41
2018-10-17T10:36:41.916Z,100656.17
2018-10-17T10:39:12.010Z,100656.55
2018-10-17T10:41:41.390Z,100652.66
2018-10-17T10:44:10.398Z,100654.41
2018-10-17T10:46:39.337Z,100657.45
2018-10-17T10:49:08.334Z,100640.91
2018-10-17T10:51:37.340Z,100650.72
2018-10-17T10:54:06.379Z,100650.02
2018-10-17T10:56:35.382Z,100640.83
2018-10-17T10:59:04.420Z,100646.05
2018-10-17T11:01:33.395Z,100635.26
2018-10-17T11:04:02.314Z,100637.28
2018-10-17T11:06:31.316Z,100644.60
2018-10-17T11:09:00.312Z,100640.27
2018-10-17T11:11:29.271Z,100633.98
2018-10-17T11:13:58.285Z,100641.66
2018-10-17T11:16:27.268Z,100629.52
2018-10-17T11:18:56.196Z,100626.90
2018-10-17T11:21:25.172Z,100627.20
2018-10-17T11:23:54.140Z,100629.80
2018-10-17T11:26:23.146Z,100621.95
2018-10-17T11:28:52.365Z,100623.05
2018-10-17T11:31:21.421Z,100616.49
2018-10-17T11:33:50.377Z,100618.77
2018-10-17T11:36:19.332Z,100614.03
2018-10-17T11:38:48.265Z,100616.03
2018-10-17T11:41:17.291Z,100609.84
2018-10-17T11:43:46.247Z,100611.11
2018-10-17T11:46:15.188Z,100610.78
2018-10-17T11:48:44.195Z,100608.81
2018-10-17T11:51:13.142Z,100602.65
2018-10-17T11:53:42.053Z,100597.63
2018-10-17T11:56:10.978Z,100598.25
2018-10-17T11:58:39.962Z,100594.16
2018-10-17T12:01:08.936Z,100591.62
2018-10-17T12:03:37.891Z,100593.89
2018-10-17T12:06:07.176Z,100590.63
2018-10-17T12:08:36.104Z,100588.61
2018-10-17T12:11:05.161Z,100577.59
2018-10-17T12:13:34.123Z,100579.27
2018-10-17T12:16:03.045Z,100581.95
2018-10-17T12:18:32.062Z,100577.54
2018-10-17T12:21:01.024Z,100572.83
2018-10-17T12:23:29.982Z,100580.74
2018-10-17T12:25:58.879Z,100576.58
2018-10-17T12:28:27.913Z,100577.66
2018-10-17T12:30:56.844Z,100575.55
2018-10-17T12:33:25.855Z,100562.86
2018-10-17T12:35:54.758Z,100559.16
2018-10-17T12:38:23.693Z,100562.03
2018-10-17T12:40:52.751Z,100557.14
2018-10-17T12:43:21.566Z,100560.65
2018-10-17T12:45:50.596Z,100553.59
2018-10-17T12:48:19.485Z,100558.34
2018-10-17T12:50:48.394Z,100555.03
2018-10-17T12:53:17.374Z,100556.98
2018-10-17T12:55:46.333Z,100558.06
2018-10-17T12:58:15.340Z,100551.41
2018-10-17T13:00:44.242Z,100545.03
2018-10-17T13:03:13.270Z,100551.01
2018-10-17T13:05:42.193Z,100548.13
2018-10-17T13:08:11.171Z,100543.27
2018-10-17T13:10:40.080Z,100543.17
2018-10-17T13:13:09.061Z,100537.58
2018-10-17T13:15:37.959Z,100539.16
2018-10-17T13:18:06.949Z,100547.09
2018-10-17T13:20:35.896Z,100541.47
2018-10-17T13:23:04.905Z,100531.88
2018-10-17T13:25:33.805Z,100538.77
2018-10-17T13:28:02.773Z,100540.66
2018-10-17T13:30:31.689Z,100540.72
2018-10-17T13:33:01.049Z,100537.40
2018-10-17T13:35:30.402Z,100536.33
2018-10-17T13:37:59.390Z,100534.17
2018-10-17T13:40:28.302Z,100525.48
2018-10-17T13:42:57.352Z,100524.97
2018-10-17T13:45:26.279Z,100525.25
2018-10-17T13:47:55.237Z,100524.47
2018-10-17T13:50:24.278Z,100525.53
2018-10-17T13:52:53.322Z,100522.51
2018-10-17T13:55:22.389Z,100528.87
2018-10-17T13:57:51.414Z,100528.75
2018-10-17T14:00:20.211Z,100524.74
2018-10-17T14:02:49.237Z,100523.34
2018-10-17T14:05:18.469Z,100534.73
2018-10-17T14:07:47.430Z,100531.08
2018-10-17T14:10:16.374Z,100527.92
2018-10-17T14:12:45.362Z,100531.27
2018-10-17T14:15:14.361Z,100523.48
2018-10-17T14:17:43.401Z,100515.57
2018-10-17T14:20:12.369Z,100511.20
2018-10-17T14:22:41.350Z,100515.39
2018-10-17T14:25:10.342Z,100509.85
2018-10-17T14:27:39.428Z,100508.39
2018-10-17T14:30:08.958Z,100509.09
2018-10-17T14:32:37.986Z,100506.50
2018-10-17T14:35:09.277Z,100504.94
2018-10-17T14:37:38.317Z,100504.70
2018-10-17T14:40:07.350Z,100504.22
2018-10-17T14:42:36.367Z,100507.02
2018-10-17T14:45:06.039Z,100503.75
2018-10-17T14:47:35.001Z,100505.80
2018-10-17T14:50:03.921Z,100505.18
2018-10-17T14:52:32.823Z,100505.80
2018-10-17T14:55:01.796Z,100498.41
2018-10-17T14:57:31.125Z,100502.01
2018-10-17T15:00:00.102Z,100501.56
2018-10-17T15:02:29.924Z,100501.61
2018-10-17T15:04:58.976Z,100500.34
2018-10-17T15:07:27.942Z,100500.58
2018-10-17T15:09:56.954Z,100501.59
2018-10-17T15:12:27.678Z,100497.78
2018-10-17T15:14:56.697Z,100497.95
2018-10-17T15:17:25.943Z,100490.98
2018-10-17T15:19:54.980Z,100488.60
2018-10-17T15:22:23.912Z,100490.59
2018-10-17T15:24:52.915Z,100491.08
2018-10-17T15:27:21.903Z,100491.98
2018-10-17T15:29:50.871Z,100495.36
2018-10-17T15:32:19.953Z,100496.84
2018-10-17T15:34:48.987Z,100493.92
2018-10-17T15:37:17.910Z,100497.69
2018-10-17T15:39:46.921Z,100496.06
2018-10-17T15:42:15.907Z,100493.03
2018-10-17T15:44:44.914Z,100485.69
2018-10-17T15:47:14.371Z,100494.00
2018-10-17T15:49:43.830Z,100493.45
2018-10-17T15:52:13.125Z,100488.14
2018-10-17T15:54:42.470Z,100486.02
2018-10-17T15:57:11.690Z,100484.13
2018-10-17T15:59:40.766Z,100486.72
2018-10-17T16:02:10.044Z,100496.19
2018-10-17T16:04:39.370Z,100490.52
2018-10-17T16:07:08.755Z,100491.39
2018-10-17T16:09:38.191Z,100499.11
2018-10-17T16:12:07.573Z,100490.48
2018-10-17T16:14:37.263Z,100491.91
2018-10-17T16:17:06.663Z,100491.05
2018-10-17T16:19:35.917Z,100493.89
2018-10-17T16:22:05.079Z,100495.65
2018-10-17T16:24:34.442Z,100496.72
2018-10-17T16:27:03.793Z,100501.98
2018-10-17T16:29:33.312Z,100502.84
2018-10-17T16:32:02.781Z,100501.56
2018-10-17T16:34:32.928Z,100510.25
2018-10-17T16:37:02.242Z,100503.41
2018-10-17T16:39:31.480Z,100502.22
2018-10-17T16:42:00.718Z,100503.49
2018-10-17T16:44:30.131Z,100503.24
2018-10-17T16:46:59.563Z,100502.66
2018-10-17T16:49:28.966Z,100505.45
2018-10-17T16:51:58.243Z,100513.77
2018-10-17T16:54:27.490Z,100516.20
2018-10-17T16:56:56.815Z,100517.45
2018-10-17T16:59:26.142Z,100521.66
2018-10-17T17:01:56.124Z,100519.05
2018-10-17T17:04:25.339Z,100520.93
2018-10-17T17:06:54.429Z,100520.61
2018-10-17T17:09:23.601Z,100528.11
2018-10-17T17:11:52.581Z,100517.52
2018-10-17T17:14:21.538Z,100522.87
2018-10-17T17:16:50.705Z,100522.45
2018-10-17T17:19:19.690Z,100529.33
2018-10-17T17:21:48.678Z,100535.77
2018-10-17T17:24:17.653Z,100536.61
2018-10-17T17:26:46.734Z,100531.48
2018-10-17T17:29:15.662Z,100537.47
2018-10-17T17:31:44.606Z,100535.02
2018-10-17T17:34:13.722Z,100535.47
2018-10-17T17:36:42.670Z,100535.07
2018-10-17T17:39:11.799Z,100539.66
2018-10-17T17:41:40.722Z,100537.58
2018-10-17T17:44:09.706Z,100541.70
2018-10-17T17:46:38.699Z,100536.86
2018-10-17T17:49:07.654Z,100545.06
2018-10-17T17:51:36.604Z,100544.11
2018-10-17T17:54:05.662Z,100547.79
2018-10-17T17:56:34.594Z,100549.41
2018-10-17T17:59:03.619Z,100550.60
2018-10-17T18:01:32.551Z,100550.00
2018-10-17T18:04:01.550Z,100552.16
2018-10-17T18:06:30.529Z,100557.70
2018-10-17T18:08:59.778Z,100559.33
2018-10-17T18:11:28.870Z,100565.26
2018-10-17T18:13:58.966Z,100559.70
2018-10-17T18:16:27.919Z,100558.98
2018-10-17T18:18:56.893Z,100557.56
2018-10-17T18:21:25.963Z,100564.03
2018-10-17T18:23:54.930Z,100560.55
2018-10-17T18:26:23.919Z,100563.38
2018-10-17T18:28:52.886Z,100565.11
2018-10-17T18:31:21.813Z,100564.50
2018-10-17T18:33:50.869Z,100563.38
2018-10-17T18:36:19.836Z,100557.43
2018-10-17T18:38:48.820Z,100568.91
2018-10-17T18:41:17.805Z,100570.45
2018-10-17T18:43:46.878Z,100563.52
2018-10-17T18:46:15.926Z,100573.58
2018-10-17T18:48:44.899Z,100568.11
2018-10-17T18:51:13.958Z,100568.09
2018-10-17T18:53:42.893Z,100575.11
2018-10-17T18:56:11.891Z,100578.45
2018-10-17T18:58:40.856Z,100577.17
2018-10-17T19:01:09.971Z,100582.79
2018-10-17T19:03:39.166Z,100576.66
2018-10-17T19:06:08.350Z,100590.67
2018-10-17T19:08:37.458Z,100585.63
2018-10-17T19:11:07.222Z,100585.85
2018-10-17T19:13:36.469Z,100587.39
2018-10-17T19:16:05.857Z,100589.86
2018-10-17T19:18:34.936Z,100591.45
2018-10-17T19:21:04.140Z,100600.66
2018-10-17T19:23:33.351Z,100599.42
2018-10-17T19:26:02.556Z,100599.64
2018-10-17T19:28:31.730Z,100604.95
2018-10-17T19:31:00.947Z,100602.58
2018-10-17T19:33:30.117Z,100602.53
2018-10-17T19:35:59.407Z,100606.72
2018-10-17T19:38:28.554Z,100605.78
2018-10-17T19:40:57.807Z,100613.09
2018-10-17T19:43:26.958Z,100615.89
2018-10-17T19:45:56.107Z,100614.52
2018-10-17T19:48:25.318Z,100614.58
2018-10-17T19:50:54.546Z,100615.92
2018-10-17T19:53:23.733Z,100623.52
2018-10-17T19:55:53.016Z,100624.57
2018-10-17T19:58:22.045Z,100626.29
2018-10-17T20:00:51.280Z,100625.52
2018-10-17T20:03:20.386Z,100631.03
2018-10-17T20:05:49.595Z,100627.17
2018-10-17T20:08:18.792Z,100631.44
2018-10-17T20:10:48.034Z,100636.97
2018-10-17T20:13:17.293Z,100634.80
2018-10-17T20:15:46.506Z,100634.16
2018-10-17T20:18:15.629Z,100639.22
2018-10-17T20:20:44.800Z,100633.14
2018-10-17T20:23:13.799Z,100636.61
2018-10-17T20:25:42.794Z,100632.16
2018-10-17T20:28:11.790Z,100633.67
2018-10-17T20:30:40.740Z,100631.47
2018-10-17T20:33:09.898Z,100633.23
2018-10-17T20:35:38.822Z,100632.21
2018-10-17T20:38:07.874Z,100628.28
2018-10-17T20:40:36.942Z,100628.38
2018-10-17T20:43:05.943Z,100632.03
2018-10-17T20:45:34.884Z,100632.36
2018-10-17T20:48:03.914Z,100631.53
2018-10-17T20:50:32.854Z,100633.92
2018-10-17T20:53:01.810Z,100628.88
2018-10-17T20:55:30.734Z,100629.34
2018-10-17T20:57:59.736Z,100630.71
2018-10-17T21:00:29.415Z,100629.76
2018-10-17T21:02:58.474Z,100632.09
2018-10-17T21:05:27.384Z,100635.47
2018-10-17T21:07:56.379Z,100638.84
2018-10-17T21:10:25.834Z,100640.17
2018-10-17T21:12:54.829Z,100634.13
2018-10-17T21:15:24.038Z,100644.88
2018-10-17T21:17:53.025Z,100638.84
2018-10-17T21:20:21.948Z,100639.86
2018-10-17T21:22:50.999Z,100639.34
2018-10-17T21:25:19.966Z,100645.75
2018-10-17T21:27:48.961Z,100640.85
2018-10-17T21:30:18.026Z,100645.38
2018-10-17T21:32:47.074Z,100637.83
2018-10-17T21:35:16.050Z,100642.04
2018-10-17T21:37:45.069Z,100647.00
2018-10-17T21:40:14.305Z,100646.36
2018-10-17T21:42:43.294Z,100644.88
2018-10-17T21:45:12.267Z,100633.78
2018-10-17T21:47:41.275Z,100635.31
2018-10-17T21:50:10.358Z,100634.61
2018-10-17T21:52:39.424Z,100635.80
2018-10-17T21:55:08.370Z,100637.98
2018-10-17T21:57:37.357Z,100637.64
2018-10-17T22:00:07.583Z,100639.51
2018-10-17T22:02:36.563Z,100640.02
2018-10-17T22:05:06.987Z,100645.91
2018-10-17T22:07:36.416Z,100644.37
2018-10-17T22:10:05.814Z,100644.51
2018-10-17T22:12:35.527Z,100644.70
2018-10-17T22:15:04.789Z,100645.82
2018-10-17T22:17:33.844Z,100652.10
2018-10-17T22:20:02.951Z,100644.81
2018-10-17T22:22:31.908Z,100651.23
2018-10-17T22:25:00.962Z,100646.39
2018-10-17T22:27:29.925Z,100638.55
2018-10-17T22:29:58.955Z,100639.56
2018-10-17T22:32:27.919Z,100639.08
2018-10-17T22:34:56.923Z,100643.84
2018-10-17T22:37:25.872Z,100647.20
2018-10-17T22:39:54.858Z,100641.20
2018-10-17T22:42:23.792Z,100648.66
2018-10-17T22:44:52.746Z,100636.67
2018-10-17T22:47:21.697Z,100647.08
2018-10-17T22:49:51.698Z,100646.91
2018-10-17T22:52:20.615Z,100646.53
2018-10-17T22:54:49.621Z,100650.21
2018-10-17T22:57:18.534Z,100645.80
2018-10-17T22:59:47.514Z,100641.27
2018-10-17T23:02:16.596Z,100642.20
2018-10-17T23:04:45.486Z,100643.44
2018-10-17T23:07:14.417Z,100644.06
2018-10-17T23:09:43.370Z,100647.20
2018-10-17T23:12:12.293Z,100651.22
2018-10-17T23:14:41.242Z,100650.56
2018-10-17T23:17:10.169Z,100660.64
2018-10-17T23:19:39.193Z,100647.73
2018-10-17T23:22:08.183Z,100652.27
2018-10-17T23:24:37.149Z,100650.30
2018-10-17T23:27:06.107Z,100653.78
2018-10-17T23:29:35.062Z,100649.47
2018-10-17T23:32:04.054Z,100654.38
2018-10-17T23:34:32.998Z,100651.95
2018-10-17T23:37:01.972Z,100651.24
2018-10-17T23:39:30.910Z,100651.71
2018-10-17T23:41:59.938Z,100650.37
2018-10-17T23:44:29.097Z,100648.76
2018-10-17T23:46:58.029Z,100644.61
2018-10-17T23:49:26.941Z,100652.46
2018-10-17T23:51:55.924Z,100649.44
2018-10-17T23:54:24.840Z,100640.84
2018-10-17T23:56:53.826Z,100647.90
2018-10-17T23:59:22.882Z,100644.67
